sensor_id;sensor_type;location;lat;lon;timestamp;P1;durP1;ratioP1;P2;durP2;ratioP2
36415;SDS011;22447;44.530;18.620;2023-03-04T00:01:34;210.73;;;81.35;;
36415;SDS011;22447;44.530;18.620;2023-03-04T00:04:00;209.18;;;80.72;;
36415;SDS011;22447;44.530;18.620;2023-03-04T00:06:26;200.07;;;78.43;;
36415;SDS011;22447;44.530;18.620;2023-03-04T00:08:52;183.00;;;82.65;;
36415;SDS011;22447;44.530;18.620;2023-03-04T00:11:18;204.05;;;90.72;;
36415;SDS011;22447;44.530;18.620;2023-03-04T00:13:44;197.30;;;87.22;;
36415;SDS011;22447;44.530;18.620;2023-03-04T00:16:10;180.65;;;77.38;;
36415;SDS011;22447;44.530;18.620;2023-03-04T00:18:36;176.85;;;75.13;;
36415;SDS011;22447;44.530;18.620;2023-03-04T00:21:02;163.10;;;72.88;;
36415;SDS011;22447;44.530;18.620;2023-03-04T00:23:28;162.90;;;73.70;;
36415;SDS011;22447;44.530;18.620;2023-03-04T00:25:54;163.65;;;74.05;;
36415;SDS011;22447;44.530;18.620;2023-03-04T00:28:20;169.07;;;73.30;;
36415;SDS011;22447;44.530;18.620;2023-03-04T00:30:46;158.57;;;71.70;;
36415;SDS011;22447;44.530;18.620;2023-03-04T00:33:12;158.90;;;72.78;;
36415;SDS011;22447;44.530;18.620;2023-03-04T00:35:38;176.55;;;75.53;;
36415;SDS011;22447;44.530;18.620;2023-03-04T00:38:04;160.45;;;72.63;;
36415;SDS011;22447;44.530;18.620;2023-03-04T00:40:30;167.02;;;72.93;;
36415;SDS011;22447;44.530;18.620;2023-03-04T00:42:56;170.15;;;74.28;;
36415;SDS011;22447;44.530;18.620;2023-03-04T00:45:22;165.93;;;75.90;;
36415;SDS011;22447;44.530;18.620;2023-03-04T00:47:48;160.45;;;73.28;;
36415;SDS011;22447;44.530;18.620;2023-03-04T00:50:14;154.52;;;69.43;;
36415;SDS011;22447;44.530;18.620;2023-03-04T00:52:40;153.73;;;69.72;;
36415;SDS011;22447;44.530;18.620;2023-03-04T00:55:06;180.25;;;75.13;;
36415;SDS011;22447;44.530;18.620;2023-03-04T00:57:33;171.70;;;71.53;;
36415;SDS011;22447;44.530;18.620;2023-03-04T00:59:59;153.23;;;71.95;;
36415;SDS011;22447;44.530;18.620;2023-03-04T01:02:25;154.57;;;70.72;;
36415;SDS011;22447;44.530;18.620;2023-03-04T01:04:51;166.27;;;71.65;;
36415;SDS011;22447;44.530;18.620;2023-03-04T01:07:17;164.05;;;72.40;;
36415;SDS011;22447;44.530;18.620;2023-03-04T01:09:43;145.70;;;65.78;;
36415;SDS011;22447;44.530;18.620;2023-03-04T01:12:09;142.25;;;65.53;;
36415;SDS011;22447;44.530;18.620;2023-03-04T01:14:35;143.18;;;62.67;;
36415;SDS011;22447;44.530;18.620;2023-03-04T01:17:01;146.15;;;65.65;;
36415;SDS011;22447;44.530;18.620;2023-03-04T01:19:27;148.05;;;67.63;;
36415;SDS011;22447;44.530;18.620;2023-03-04T01:21:53;155.18;;;68.38;;
36415;SDS011;22447;44.530;18.620;2023-03-04T01:24:20;151.50;;;68.38;;
36415;SDS011;22447;44.530;18.620;2023-03-04T01:26:46;146.75;;;66.63;;
36415;SDS011;22447;44.530;18.620;2023-03-04T01:29:12;151.57;;;68.75;;
36415;SDS011;22447;44.530;18.620;2023-03-04T01:31:39;136.57;;;61.83;;
36415;SDS011;22447;44.530;18.620;2023-03-04T01:34:04;136.52;;;62.72;;
36415;SDS011;22447;44.530;18.620;2023-03-04T01:36:30;131.60;;;59.90;;
36415;SDS011;22447;44.530;18.620;2023-03-04T01:38:56;125.60;;;57.63;;
36415;SDS011;22447;44.530;18.620;2023-03-04T01:41:24;149.25;;;63.20;;
36415;SDS011;22447;44.530;18.620;2023-03-04T01:43:50;144.63;;;64.03;;
36415;SDS011;22447;44.530;18.620;2023-03-04T01:46:19;154.68;;;66.50;;
36415;SDS011;22447;44.530;18.620;2023-03-04T01:48:45;156.45;;;65.15;;
36415;SDS011;22447;44.530;18.620;2023-03-04T01:51:16;162.48;;;66.40;;
36415;SDS011;22447;44.530;18.620;2023-03-04T01:53:43;164.52;;;66.47;;
36415;SDS011;22447;44.530;18.620;2023-03-04T01:58:43;198.35;;;84.55;;
36415;SDS011;22447;44.530;18.620;2023-03-04T02:01:11;192.80;;;82.05;;
36415;SDS011;22447;44.530;18.620;2023-03-04T02:03:38;198.45;;;84.45;;
36415;SDS011;22447;44.530;18.620;2023-03-04T02:06:04;216.85;;;88.70;;
36415;SDS011;22447;44.530;18.620;2023-03-04T02:08:31;204.30;;;86.90;;
36415;SDS011;22447;44.530;18.620;2023-03-04T02:10:57;221.43;;;87.50;;
36415;SDS011;22447;44.530;18.620;2023-03-04T02:13:23;225.80;;;96.32;;
36415;SDS011;22447;44.530;18.620;2023-03-04T02:15:50;226.25;;;97.63;;
36415;SDS011;22447;44.530;18.620;2023-03-04T02:18:17;226.80;;;94.13;;
36415;SDS011;22447;44.530;18.620;2023-03-04T02:28:46;220.02;;;94.90;;
36415;SDS011;22447;44.530;18.620;2023-03-04T02:31:32;220.93;;;94.75;;
36415;SDS011;22447;44.530;18.620;2023-03-04T02:34:05;227.00;;;95.35;;
36415;SDS011;22447;44.530;18.620;2023-03-04T02:36:35;238.35;;;100.60;;
36415;SDS011;22447;44.530;18.620;2023-03-04T02:39:03;241.20;;;101.18;;
36415;SDS011;22447;44.530;18.620;2023-03-04T02:41:35;230.57;;;98.15;;
36415;SDS011;22447;44.530;18.620;2023-03-04T02:44:01;227.50;;;101.28;;
36415;SDS011;22447;44.530;18.620;2023-03-04T02:46:28;227.15;;;94.07;;
36415;SDS011;22447;44.530;18.620;2023-03-04T02:48:54;218.60;;;95.53;;
36415;SDS011;22447;44.530;18.620;2023-03-04T02:51:20;235.98;;;98.72;;
36415;SDS011;22447;44.530;18.620;2023-03-04T02:53:46;216.00;;;95.05;;
36415;SDS011;22447;44.530;18.620;2023-03-04T02:56:13;216.25;;;95.72;;
36415;SDS011;22447;44.530;18.620;2023-03-04T02:58:39;216.70;;;94.10;;
36415;SDS011;22447;44.530;18.620;2023-03-04T03:01:07;227.23;;;96.00;;
36415;SDS011;22447;44.530;18.620;2023-03-04T03:03:33;235.70;;;97.53;;
36415;SDS011;22447;44.530;18.620;2023-03-04T03:05:59;235.25;;;96.18;;
36415;SDS011;22447;44.530;18.620;2023-03-04T03:08:25;228.18;;;93.22;;
36415;SDS011;22447;44.530;18.620;2023-03-04T03:10:52;233.55;;;94.28;;
36415;SDS011;22447;44.530;18.620;2023-03-04T03:13:19;226.73;;;94.25;;
36415;SDS011;22447;44.530;18.620;2023-03-04T03:15:46;238.95;;;98.63;;
36415;SDS011;22447;44.530;18.620;2023-03-04T03:18:13;234.73;;;92.60;;
36415;SDS011;22447;44.530;18.620;2023-03-04T03:20:40;237.25;;;92.85;;
36415;SDS011;22447;44.530;18.620;2023-03-04T03:23:07;228.95;;;93.78;;
36415;SDS011;22447;44.530;18.620;2023-03-04T03:25:34;230.10;;;94.05;;
36415;SDS011;22447;44.530;18.620;2023-03-04T03:28:00;239.77;;;94.85;;
36415;SDS011;22447;44.530;18.620;2023-03-04T03:30:26;231.20;;;90.47;;
36415;SDS011;22447;44.530;18.620;2023-03-04T03:32:52;232.40;;;92.13;;
36415;SDS011;22447;44.530;18.620;2023-03-04T03:35:18;247.13;;;94.15;;
36415;SDS011;22447;44.530;18.620;2023-03-04T03:37:44;235.63;;;90.97;;
36415;SDS011;22447;44.530;18.620;2023-03-04T03:40:10;221.77;;;88.75;;
36415;SDS011;22447;44.530;18.620;2023-03-04T03:42:36;225.68;;;91.03;;
36415;SDS011;22447;44.530;18.620;2023-03-04T03:45:02;244.80;;;94.00;;
36415;SDS011;22447;44.530;18.620;2023-03-04T03:47:28;241.73;;;93.93;;
36415;SDS011;22447;44.530;18.620;2023-03-04T03:49:54;245.35;;;92.70;;
36415;SDS011;22447;44.530;18.620;2023-03-04T03:52:20;219.07;;;89.00;;
36415;SDS011;22447;44.530;18.620;2023-03-04T03:54:46;238.98;;;92.22;;
36415;SDS011;22447;44.530;18.620;2023-03-04T03:57:12;252.85;;;92.60;;
36415;SDS011;22447;44.530;18.620;2023-03-04T03:59:38;225.50;;;88.53;;
36415;SDS011;22447;44.530;18.620;2023-03-04T04:02:04;224.15;;;85.82;;
36415;SDS011;22447;44.530;18.620;2023-03-04T04:04:30;225.77;;;84.75;;
36415;SDS011;22447;44.530;18.620;2023-03-04T04:06:56;227.98;;;85.25;;
36415;SDS011;22447;44.530;18.620;2023-03-04T04:09:22;224.52;;;83.63;;
36415;SDS011;22447;44.530;18.620;2023-03-04T04:11:48;232.30;;;87.35;;
36415;SDS011;22447;44.530;18.620;2023-03-04T04:14:14;227.98;;;88.03;;
36415;SDS011;22447;44.530;18.620;2023-03-04T04:16:40;228.27;;;86.85;;
36415;SDS011;22447;44.530;18.620;2023-03-04T04:19:06;233.90;;;95.57;;
36415;SDS011;22447;44.530;18.620;2023-03-04T04:21:32;241.75;;;90.90;;
36415;SDS011;22447;44.530;18.620;2023-03-04T04:23:58;252.02;;;95.07;;
36415;SDS011;22447;44.530;18.620;2023-03-04T04:26:24;234.43;;;91.18;;
36415;SDS011;22447;44.530;18.620;2023-03-04T04:28:50;231.23;;;94.10;;
36415;SDS011;22447;44.530;18.620;2023-03-04T04:31:16;242.25;;;92.93;;
36415;SDS011;22447;44.530;18.620;2023-03-04T04:33:41;229.73;;;84.28;;
36415;SDS011;22447;44.530;18.620;2023-03-04T04:36:08;234.43;;;85.85;;
36415;SDS011;22447;44.530;18.620;2023-03-04T04:38:39;248.15;;;89.15;;
36415;SDS011;22447;44.530;18.620;2023-03-04T04:41:05;266.65;;;94.65;;
36415;SDS011;22447;44.530;18.620;2023-03-04T04:43:38;246.77;;;90.95;;
36415;SDS011;22447;44.530;18.620;2023-03-04T04:46:04;237.25;;;90.07;;
36415;SDS011;22447;44.530;18.620;2023-03-04T04:48:30;249.90;;;91.47;;
36415;SDS011;22447;44.530;18.620;2023-03-04T04:50:56;250.23;;;95.18;;
36415;SDS011;22447;44.530;18.620;2023-03-04T04:53:21;267.67;;;96.88;;
36415;SDS011;22447;44.530;18.620;2023-03-04T04:55:47;254.75;;;94.13;;
36415;SDS011;22447;44.530;18.620;2023-03-04T04:58:13;261.70;;;96.13;;
36415;SDS011;22447;44.530;18.620;2023-03-04T05:00:39;255.90;;;90.78;;
36415;SDS011;22447;44.530;18.620;2023-03-04T05:03:05;251.80;;;89.70;;
36415;SDS011;22447;44.530;18.620;2023-03-04T05:05:31;252.73;;;92.90;;
36415;SDS011;22447;44.530;18.620;2023-03-04T05:07:57;251.23;;;93.13;;
36415;SDS011;22447;44.530;18.620;2023-03-04T05:10:23;250.85;;;94.28;;
36415;SDS011;22447;44.530;18.620;2023-03-04T05:12:49;265.73;;;95.43;;
36415;SDS011;22447;44.530;18.620;2023-03-04T05:15:15;295.38;;;101.63;;
36415;SDS011;22447;44.530;18.620;2023-03-04T05:17:41;252.13;;;94.95;;
36415;SDS011;22447;44.530;18.620;2023-03-04T05:20:07;277.10;;;100.15;;
36415;SDS011;22447;44.530;18.620;2023-03-04T05:22:34;287.58;;;101.38;;
36415;SDS011;22447;44.530;18.620;2023-03-04T05:25:00;270.08;;;99.00;;
36415;SDS011;22447;44.530;18.620;2023-03-04T05:27:26;246.65;;;91.47;;
36415;SDS011;22447;44.530;18.620;2023-03-04T05:29:52;294.17;;;104.00;;
36415;SDS011;22447;44.530;18.620;2023-03-04T05:32:20;258.98;;;96.45;;
36415;SDS011;22447;44.530;18.620;2023-03-04T05:34:45;267.52;;;95.97;;
36415;SDS011;22447;44.530;18.620;2023-03-04T05:37:11;284.38;;;99.55;;
36415;SDS011;22447;44.530;18.620;2023-03-04T05:39:37;301.45;;;101.57;;
36415;SDS011;22447;44.530;18.620;2023-03-04T05:42:03;288.25;;;101.72;;
36415;SDS011;22447;44.530;18.620;2023-03-04T05:44:29;279.38;;;98.88;;
36415;SDS011;22447;44.530;18.620;2023-03-04T05:46:55;243.18;;;89.40;;
36415;SDS011;22447;44.530;18.620;2023-03-04T05:49:21;238.80;;;88.68;;
36415;SDS011;22447;44.530;18.620;2023-03-04T05:51:47;311.92;;;99.88;;
36415;SDS011;22447;44.530;18.620;2023-03-04T05:54:13;243.50;;;90.15;;
36415;SDS011;22447;44.530;18.620;2023-03-04T05:56:39;258.77;;;94.28;;
36415;SDS011;22447;44.530;18.620;2023-03-04T05:59:05;275.42;;;99.65;;
36415;SDS011;22447;44.530;18.620;2023-03-04T06:01:31;227.73;;;87.68;;
36415;SDS011;22447;44.530;18.620;2023-03-04T06:03:57;251.27;;;95.28;;
36415;SDS011;22447;44.530;18.620;2023-03-04T06:06:23;270.90;;;103.20;;
36415;SDS011;22447;44.530;18.620;2023-03-04T06:08:49;294.42;;;103.47;;
36415;SDS011;22447;44.530;18.620;2023-03-04T06:11:14;299.77;;;107.47;;
36415;SDS011;22447;44.530;18.620;2023-03-04T06:13:40;252.00;;;100.63;;
36415;SDS011;22447;44.530;18.620;2023-03-04T06:16:06;263.83;;;106.00;;
36415;SDS011;22447;44.530;18.620;2023-03-04T06:18:33;278.83;;;107.43;;
36415;SDS011;22447;44.530;18.620;2023-03-04T06:21:00;281.40;;;108.32;;
36415;SDS011;22447;44.530;18.620;2023-03-04T06:23:27;326.63;;;114.68;;
36415;SDS011;22447;44.530;18.620;2023-03-04T06:25:55;301.33;;;110.63;;
36415;SDS011;22447;44.530;18.620;2023-03-04T06:28:22;294.70;;;112.18;;
36415;SDS011;22447;44.530;18.620;2023-03-04T06:30:52;297.60;;;110.13;;
36415;SDS011;22447;44.530;18.620;2023-03-04T06:33:18;283.67;;;109.38;;
36415;SDS011;22447;44.530;18.620;2023-03-04T06:35:44;290.85;;;107.43;;
36415;SDS011;22447;44.530;18.620;2023-03-04T06:38:10;277.90;;;105.53;;
36415;SDS011;22447;44.530;18.620;2023-03-04T06:40:36;281.92;;;108.70;;
36415;SDS011;22447;44.530;18.620;2023-03-04T06:43:02;268.85;;;103.97;;
36415;SDS011;22447;44.530;18.620;2023-03-04T06:45:28;265.27;;;105.18;;
36415;SDS011;22447;44.530;18.620;2023-03-04T06:47:54;247.75;;;95.55;;
36415;SDS011;22447;44.530;18.620;2023-03-04T06:50:20;257.38;;;100.47;;
36415;SDS011;22447;44.530;18.620;2023-03-04T06:52:46;273.33;;;104.47;;
36415;SDS011;22447;44.530;18.620;2023-03-04T06:55:13;245.43;;;94.60;;
36415;SDS011;22447;44.530;18.620;2023-03-04T06:57:39;271.25;;;99.90;;
36415;SDS011;22447;44.530;18.620;2023-03-04T07:00:05;264.50;;;99.40;;
36415;SDS011;22447;44.530;18.620;2023-03-04T07:02:31;239.88;;;90.05;;
36415;SDS011;22447;44.530;18.620;2023-03-04T07:04:57;250.57;;;93.03;;
36415;SDS011;22447;44.530;18.620;2023-03-04T07:07:23;262.73;;;95.03;;
36415;SDS011;22447;44.530;18.620;2023-03-04T07:09:50;264.45;;;93.97;;
36415;SDS011;22447;44.530;18.620;2023-03-04T07:12:16;278.25;;;92.40;;
36415;SDS011;22447;44.530;18.620;2023-03-04T07:14:42;219.20;;;81.05;;
36415;SDS011;22447;44.530;18.620;2023-03-04T07:17:08;205.60;;;73.22;;
36415;SDS011;22447;44.530;18.620;2023-03-04T07:19:34;187.50;;;70.95;;
36415;SDS011;22447;44.530;18.620;2023-03-04T07:22:00;196.77;;;72.80;;
36415;SDS011;22447;44.530;18.620;2023-03-04T07:24:26;198.63;;;74.22;;
36415;SDS011;22447;44.530;18.620;2023-03-04T07:26:52;200.32;;;78.20;;
36415;SDS011;22447;44.530;18.620;2023-03-04T07:29:18;180.25;;;65.95;;
36415;SDS011;22447;44.530;18.620;2023-03-04T07:31:44;160.95;;;59.05;;
36415;SDS011;22447;44.530;18.620;2023-03-04T07:34:11;162.60;;;56.97;;
36415;SDS011;22447;44.530;18.620;2023-03-04T07:36:38;195.00;;;65.93;;
36415;SDS011;22447;44.530;18.620;2023-03-04T07:39:04;199.52;;;67.82;;
36415;SDS011;22447;44.530;18.620;2023-03-04T07:41:31;213.68;;;75.25;;
36415;SDS011;22447;44.530;18.620;2023-03-04T07:44:00;215.07;;;80.25;;
36415;SDS011;22447;44.530;18.620;2023-03-04T07:46:27;230.80;;;82.20;;
36415;SDS011;22447;44.530;18.620;2023-03-04T07:48:53;235.45;;;81.65;;
36415;SDS011;22447;44.530;18.620;2023-03-04T07:51:20;223.50;;;76.95;;
36415;SDS011;22447;44.530;18.620;2023-03-04T07:53:49;229.40;;;80.15;;
36415;SDS011;22447;44.530;18.620;2023-03-04T07:56:18;228.45;;;77.93;;
36415;SDS011;22447;44.530;18.620;2023-03-04T07:58:46;225.75;;;76.70;;
36415;SDS011;22447;44.530;18.620;2023-03-04T08:01:14;222.98;;;75.80;;
36415;SDS011;22447;44.530;18.620;2023-03-04T08:03:45;211.32;;;71.43;;
36415;SDS011;22447;44.530;18.620;2023-03-04T08:06:13;188.93;;;63.67;;
36415;SDS011;22447;44.530;18.620;2023-03-04T08:08:40;208.15;;;68.85;;
36415;SDS011;22447;44.530;18.620;2023-03-04T08:11:08;211.65;;;72.57;;
36415;SDS011;22447;44.530;18.620;2023-03-04T08:13:35;203.00;;;70.97;;
36415;SDS011;22447;44.530;18.620;2023-03-04T08:16:02;192.73;;;68.30;;
36415;SDS011;22447;44.530;18.620;2023-03-04T08:18:28;231.38;;;72.95;;
36415;SDS011;22447;44.530;18.620;2023-03-04T08:20:54;236.90;;;79.90;;
36415;SDS011;22447;44.530;18.620;2023-03-04T08:23:20;203.40;;;70.38;;
36415;SDS011;22447;44.530;18.620;2023-03-04T08:25:47;212.80;;;72.25;;
36415;SDS011;22447;44.530;18.620;2023-03-04T08:28:13;226.63;;;82.88;;
36415;SDS011;22447;44.530;18.620;2023-03-04T08:30:40;225.65;;;81.07;;
36415;SDS011;22447;44.530;18.620;2023-03-04T08:33:06;240.80;;;83.53;;
36415;SDS011;22447;44.530;18.620;2023-03-04T08:35:35;234.63;;;85.30;;
36415;SDS011;22447;44.530;18.620;2023-03-04T08:38:03;216.60;;;80.33;;
36415;SDS011;22447;44.530;18.620;2023-03-04T08:40:29;230.35;;;79.50;;
36415;SDS011;22447;44.530;18.620;2023-03-04T08:42:57;238.23;;;80.68;;
36415;SDS011;22447;44.530;18.620;2023-03-04T08:45:23;234.48;;;81.63;;
36415;SDS011;22447;44.530;18.620;2023-03-04T08:47:50;257.70;;;85.78;;
36415;SDS011;22447;44.530;18.620;2023-03-04T08:50:16;242.35;;;80.35;;
36415;SDS011;22447;44.530;18.620;2023-03-04T08:52:42;237.95;;;81.68;;
36415;SDS011;22447;44.530;18.620;2023-03-04T08:55:08;232.50;;;80.32;;
36415;SDS011;22447;44.530;18.620;2023-03-04T08:57:34;244.02;;;85.32;;
36415;SDS011;22447;44.530;18.620;2023-03-04T09:00:00;254.45;;;86.97;;
36415;SDS011;22447;44.530;18.620;2023-03-04T09:02:26;260.52;;;83.43;;
36415;SDS011;22447;44.530;18.620;2023-03-04T09:04:52;246.07;;;86.82;;
36415;SDS011;22447;44.530;18.620;2023-03-04T09:07:17;252.02;;;87.80;;
36415;SDS011;22447;44.530;18.620;2023-03-04T09:09:43;222.35;;;78.00;;
36415;SDS011;22447;44.530;18.620;2023-03-04T09:12:09;206.43;;;72.18;;
36415;SDS011;22447;44.530;18.620;2023-03-04T09:14:35;206.32;;;70.05;;
36415;SDS011;22447;44.530;18.620;2023-03-04T09:17:02;211.70;;;71.25;;
36415;SDS011;22447;44.530;18.620;2023-03-04T09:19:29;186.88;;;68.00;;
36415;SDS011;22447;44.530;18.620;2023-03-04T09:21:55;161.85;;;62.97;;
36415;SDS011;22447;44.530;18.620;2023-03-04T09:24:24;165.45;;;61.05;;
36415;SDS011;22447;44.530;18.620;2023-03-04T09:26:51;159.90;;;61.80;;
36415;SDS011;22447;44.530;18.620;2023-03-04T09:29:18;152.55;;;60.25;;
36415;SDS011;22447;44.530;18.620;2023-03-04T09:31:44;134.15;;;54.63;;
36415;SDS011;22447;44.530;18.620;2023-03-04T09:34:10;148.13;;;56.53;;
36415;SDS011;22447;44.530;18.620;2023-03-04T09:36:36;163.20;;;60.72;;
36415;SDS011;22447;44.530;18.620;2023-03-04T09:39:02;161.80;;;56.85;;
36415;SDS011;22447;44.530;18.620;2023-03-04T09:41:36;145.70;;;53.75;;
36415;SDS011;22447;44.530;18.620;2023-03-04T09:44:11;159.13;;;54.78;;
36415;SDS011;22447;44.530;18.620;2023-03-04T09:46:39;138.85;;;53.00;;
36415;SDS011;22447;44.530;18.620;2023-03-04T09:49:09;138.98;;;53.25;;
36415;SDS011;22447;44.530;18.620;2023-03-04T10:14:37;144.27;;;50.42;;
36415;SDS011;22447;44.530;18.620;2023-03-04T10:19:33;165.57;;;54.47;;
36415;SDS011;22447;44.530;18.620;2023-03-04T10:25:13;127.03;;;49.08;;
36415;SDS011;22447;44.530;18.620;2023-03-04T10:28:09;137.88;;;48.97;;
36415;SDS011;22447;44.530;18.620;2023-03-04T10:33:30;126.18;;;47.67;;
36415;SDS011;22447;44.530;18.620;2023-03-04T10:38:34;137.63;;;48.95;;
36415;SDS011;22447;44.530;18.620;2023-03-04T10:41:12;124.78;;;46.38;;
36415;SDS011;22447;44.530;18.620;2023-03-04T10:43:40;107.13;;;42.40;;
36415;SDS011;22447;44.530;18.620;2023-03-04T10:46:10;128.43;;;46.40;;
36415;SDS011;22447;44.530;18.620;2023-03-04T10:48:37;136.40;;;47.22;;
36415;SDS011;22447;44.530;18.620;2023-03-04T10:51:17;141.82;;;47.20;;
36415;SDS011;22447;44.530;18.620;2023-03-04T10:53:44;117.50;;;44.53;;
36415;SDS011;22447;44.530;18.620;2023-03-04T11:02:05;147.85;;;49.88;;
36415;SDS011;22447;44.530;18.620;2023-03-04T11:04:41;146.93;;;49.03;;
36415;SDS011;22447;44.530;18.620;2023-03-04T11:07:13;129.13;;;48.13;;
36415;SDS011;22447;44.530;18.620;2023-03-04T11:09:40;152.55;;;54.45;;
36415;SDS011;22447;44.530;18.620;2023-03-04T11:12:10;152.23;;;54.45;;
36415;SDS011;22447;44.530;18.620;2023-03-04T11:14:41;164.73;;;56.75;;
36415;SDS011;22447;44.530;18.620;2023-03-04T11:19:43;219.40;;;62.13;;
36415;SDS011;22447;44.530;18.620;2023-03-04T11:22:20;212.82;;;63.13;;
36415;SDS011;22447;44.530;18.620;2023-03-04T11:24:53;237.43;;;64.38;;
36415;SDS011;22447;44.530;18.620;2023-03-04T11:27:28;196.40;;;62.17;;
36415;SDS011;22447;44.530;18.620;2023-03-04T11:30:14;208.43;;;62.45;;
36415;SDS011;22447;44.530;18.620;2023-03-04T11:32:42;222.85;;;60.95;;
36415;SDS011;22447;44.530;18.620;2023-03-04T11:37:49;207.70;;;63.00;;
36415;SDS011;22447;44.530;18.620;2023-03-04T11:40:43;232.88;;;68.78;;
36415;SDS011;22447;44.530;18.620;2023-03-04T11:43:18;251.55;;;74.63;;
36415;SDS011;22447;44.530;18.620;2023-03-04T11:56:44;291.83;;;82.35;;
36415;SDS011;22447;44.530;18.620;2023-03-04T11:59:32;310.63;;;92.32;;
36415;SDS011;22447;44.530;18.620;2023-03-04T12:12:29;371.80;;;95.85;;
36415;SDS011;22447;44.530;18.620;2023-03-04T12:31:46;427.88;;;109.47;;
36415;SDS011;22447;44.530;18.620;2023-03-04T12:39:40;405.48;;;105.07;;
36415;SDS011;22447;44.530;18.620;2023-03-04T12:48:26;438.98;;;109.32;;
36415;SDS011;22447;44.530;18.620;2023-03-04T12:53:59;486.05;;;119.35;;
36415;SDS011;22447;44.530;18.620;2023-03-04T12:59:28;530.38;;;134.82;;
36415;SDS011;22447;44.530;18.620;2023-03-04T13:04:34;558.75;;;144.85;;
36415;SDS011;22447;44.530;18.620;2023-03-04T13:10:10;566.25;;;148.40;;
36415;SDS011;22447;44.530;18.620;2023-03-04T13:17:48;563.72;;;153.45;;
36415;SDS011;22447;44.530;18.620;2023-03-04T13:25:39;568.30;;;152.38;;
36415;SDS011;22447;44.530;18.620;2023-03-04T13:28:18;570.35;;;159.98;;
36415;SDS011;22447;44.530;18.620;2023-03-04T13:43:47;568.95;;;161.32;;
36415;SDS011;22447;44.530;18.620;2023-03-04T13:59:46;551.00;;;154.90;;
36415;SDS011;22447;44.530;18.620;2023-03-04T14:02:19;570.28;;;155.27;;
36415;SDS011;22447;44.530;18.620;2023-03-04T14:07:31;555.45;;;156.25;;
36415;SDS011;22447;44.530;18.620;2023-03-04T14:10:06;563.95;;;153.82;;
36415;SDS011;22447;44.530;18.620;2023-03-04T14:15:21;594.90;;;161.80;;
36415;SDS011;22447;44.530;18.620;2023-03-04T14:17:58;566.35;;;154.57;;
36415;SDS011;22447;44.530;18.620;2023-03-04T14:20:28;542.47;;;149.05;;
36415;SDS011;22447;44.530;18.620;2023-03-04T14:22:56;548.35;;;149.55;;
36415;SDS011;22447;44.530;18.620;2023-03-04T14:25:33;537.50;;;151.60;;
36415;SDS011;22447;44.530;18.620;2023-03-04T14:28:01;537.95;;;149.45;;
36415;SDS011;22447;44.530;18.620;2023-03-04T14:30:28;547.13;;;153.82;;
36415;SDS011;22447;44.530;18.620;2023-03-04T14:32:56;559.85;;;160.68;;
36415;SDS011;22447;44.530;18.620;2023-03-04T14:35:24;551.40;;;154.23;;
36415;SDS011;22447;44.530;18.620;2023-03-04T14:40:23;564.13;;;161.10;;
36415;SDS011;22447;44.530;18.620;2023-03-04T14:42:59;556.17;;;157.18;;
36415;SDS011;22447;44.530;18.620;2023-03-04T14:45:32;551.75;;;158.75;;
36415;SDS011;22447;44.530;18.620;2023-03-04T14:48:00;548.28;;;162.07;;
36415;SDS011;22447;44.530;18.620;2023-03-04T14:50:30;565.25;;;168.13;;
36415;SDS011;22447;44.530;18.620;2023-03-04T14:53:08;555.95;;;163.32;;
36415;SDS011;22447;44.530;18.620;2023-03-04T14:55:39;539.33;;;161.32;;
36415;SDS011;22447;44.530;18.620;2023-03-04T14:58:25;557.45;;;163.48;;
36415;SDS011;22447;44.530;18.620;2023-03-04T15:03:43;530.28;;;161.90;;
36415;SDS011;22447;44.530;18.620;2023-03-04T15:06:19;561.85;;;165.20;;
36415;SDS011;22447;44.530;18.620;2023-03-04T15:08:57;546.45;;;165.65;;
36415;SDS011;22447;44.530;18.620;2023-03-04T15:11:32;524.00;;;162.40;;
36415;SDS011;22447;44.530;18.620;2023-03-04T15:22:33;517.70;;;164.15;;
36415;SDS011;22447;44.530;18.620;2023-03-04T15:25:01;484.17;;;160.88;;
36415;SDS011;22447;44.530;18.620;2023-03-04T15:27:28;453.13;;;155.50;;
36415;SDS011;22447;44.530;18.620;2023-03-04T15:29:56;462.27;;;157.63;;
36415;SDS011;22447;44.530;18.620;2023-03-04T15:32:24;437.08;;;151.63;;
36415;SDS011;22447;44.530;18.620;2023-03-04T15:34:50;476.58;;;161.20;;
36415;SDS011;22447;44.530;18.620;2023-03-04T15:37:18;490.20;;;162.43;;
36415;SDS011;22447;44.530;18.620;2023-03-04T15:39:50;482.42;;;164.95;;
36415;SDS011;22447;44.530;18.620;2023-03-04T15:42:16;492.00;;;168.40;;
36415;SDS011;22447;44.530;18.620;2023-03-04T15:44:42;498.50;;;165.60;;
36415;SDS011;22447;44.530;18.620;2023-03-04T15:47:11;499.65;;;168.77;;
36415;SDS011;22447;44.530;18.620;2023-03-04T15:49:41;510.80;;;174.98;;
36415;SDS011;22447;44.530;18.620;2023-03-04T15:52:18;509.02;;;171.15;;
36415;SDS011;22447;44.530;18.620;2023-03-04T15:54:46;520.67;;;170.85;;
36415;SDS011;22447;44.530;18.620;2023-03-04T15:57:20;512.35;;;166.18;;
36415;SDS011;22447;44.530;18.620;2023-03-04T15:59:49;492.52;;;165.32;;
36415;SDS011;22447;44.530;18.620;2023-03-04T16:02:22;459.73;;;150.90;;
36415;SDS011;22447;44.530;18.620;2023-03-04T16:04:51;445.05;;;146.98;;
36415;SDS011;22447;44.530;18.620;2023-03-04T16:07:18;447.33;;;145.20;;
36415;SDS011;22447;44.530;18.620;2023-03-04T16:09:48;457.95;;;151.50;;
36415;SDS011;22447;44.530;18.620;2023-03-04T16:12:20;444.33;;;143.93;;
36415;SDS011;22447;44.530;18.620;2023-03-04T16:14:48;436.92;;;142.73;;
36415;SDS011;22447;44.530;18.620;2023-03-04T16:17:15;466.42;;;147.15;;
36415;SDS011;22447;44.530;18.620;2023-03-04T16:19:41;450.27;;;141.13;;
36415;SDS011;22447;44.530;18.620;2023-03-04T16:22:09;438.85;;;141.18;;
36415;SDS011;22447;44.530;18.620;2023-03-04T16:24:50;428.42;;;141.40;;
36415;SDS011;22447;44.530;18.620;2023-03-04T16:27:18;445.30;;;143.80;;
36415;SDS011;22447;44.530;18.620;2023-03-04T16:29:46;429.05;;;144.43;;
36415;SDS011;22447;44.530;18.620;2023-03-04T16:32:12;431.55;;;144.57;;
36415;SDS011;22447;44.530;18.620;2023-03-04T16:34:38;431.08;;;145.10;;
36415;SDS011;22447;44.530;18.620;2023-03-04T16:37:06;407.40;;;140.27;;
36415;SDS011;22447;44.530;18.620;2023-03-04T16:39:37;403.77;;;135.00;;
36415;SDS011;22447;44.530;18.620;2023-03-04T16:42:08;394.88;;;137.05;;
36415;SDS011;22447;44.530;18.620;2023-03-04T16:44:39;409.00;;;135.10;;
36415;SDS011;22447;44.530;18.620;2023-03-04T16:47:05;458.05;;;147.43;;
36415;SDS011;22447;44.530;18.620;2023-03-04T16:49:32;467.45;;;145.82;;
36415;SDS011;22447;44.530;18.620;2023-03-04T16:51:58;427.10;;;139.00;;